Current Weather

Kbely

Kbely, Czechia (LKKB)

Report from: Monday, July 15, 2024 5:00 AM UTC
Current time: Monday, July 15, 2024 5:16 AM UTC

Nearby weather – Weather history – Daily summaries
Weather forecast

Temperature18.0°C (64.4°F)
Dew point15.0°C (59.0°F)
Winds 3 kts (1.5 m/s, 3.5 mph) Vrb
Winds variableWinds variable from Southeast (140°) to South-Southwest (200°)
Clouds Sky clear
Altimeter29.97 in.Hg (1015 mB)
Relative humidity83 %
Density altitude529 ft. (161 m)
Remarks Ceiling and visibility OK
No significant changes expected in the next two hours
Flight conditions Visual Meteorological Conditions
Raw dataLKKB 150500Z 17003KT 140V200 CAVOK 18/15 Q1015 NOSIG
An error has occurred. This application may no longer respond until reloaded. Reload 🗙